Weather observations for the past three days for
Dodge Center Airport
Imperial (Metric)
Date Time (cdt) Wind (mph) Vis. (mi.) Weather Sky Cond. Temperature (ºF) Relative Humidity Wind Chill (°F) Heat Index (°F) Pressure Precipitation (in)
Air Dwpt 6 hour altimeter (in) sea level (mb) 1 hr 3 hr 6 hr
Max. Min.
05 22:35 SE 5 10.00 Overcast OVC120 70.2 70.2 100% 30.07 0.0
05 22:15 E 5 9.00 Overcast BKN120 OVC140 70 70 100% 30.07 0.0
05 21:55 E 6 9.00 Overcast BKN120 OVC150 70.2 70.2 100% 30.06 0.0
05 21:15 E 7 9.00 Overcast OVC120 70.7 70.7 100% 30.04 0.0
05 20:55 SE 3 8.00 Overcast BKN120 OVC160 70.5 70.5 100% 30.04 0.0
05 20:35 SE 3 8.00 Light Rain BKN120 BKN160 70.5 70.5 100% 30.03 0.0
05 20:15 SE 3 3.00 Light Rain Fog/Mist OVC120 71.4 71.4 100% 30.02 0.0
05 19:55 SE 3 6.00 Fog/Mist BKN130 OVC160 71.2 71.2 100% 30.02 0.0
05 19:35 E 3 10.00 Overcast OVC130 71.8 71.8 100% 30.02 0.0
05 19:15 E 3 10.00 Overcast OVC120 72.5 72.5 100% 30.01 0.0
05 18:55 E 6 10.00 Mostly Cloudy FEW130 BKN160 73 73 76.5 73 100% 30.01 0.0
05 18:35 SE 6 10.00 Fair CLR 74.1 73 96% 30.02 0.0
05 18:15 SE 9 10.00 Fair CLR 75.2 73 93% 74 30.01 0.0
05 17:55 SE 9 10.00 Mostly Cloudy FEW017 BKN170 76.3 73.2 90% 77 30 0.0
05 17:35 E 12 10.00 Mostly Cloudy BKN170 75.9 72.9 90% 76 30 0.0
05 17:15 E 9 10.00 Overcast OVC170 76.1 73 90% 76 30 0.0
05 16:55 E 14 9.00 Overcast BKN150 OVC170 76.1 73.4 91% 76 29.99 0.0
05 16:35 E 9 9.00 Overcast OVC150 76.3 73.9 93% 76 29.99 0.0
05 16:15 E 13 10.00 Mostly Cloudy FEW100 SCT130 BKN160 BKN340 76.5 73.6 91% 77 29.99 0.0
05 15:55 E 10 10.00 Overcast OVC140 75.6 73.2 92% 75 30.01 0.0
05 15:35 E 13 10.00 Overcast OVC150 75.6 73 92% 75 30.01 0.0
05 15:15 E 12 10.00 Overcast OVC150 75.6 73.8 94% 75 30.01 0.0
05 12:55 SE 5 10.00 Overcast OVC010 75.7 73.9 75.7 68.9 94% 75 30.06 0.0
05 12:35 E 5 10.00 Overcast OVC010 74.3 73.4 97% 30.07 0.0
05 12:15 SE 5 10.00 Overcast OVC008 73.8 73.6 99% 30.08 0.0
05 11:55 E 6 10.00 Overcast OVC007 72.1 72.1 100% 30.08 0.0
05 11:35 NE 3 9.00 Overcast OVC006 71.8 71.8 100% 30.08 0.0
05 11:15 E 6 8.00 Overcast OVC004 70.7 70.7 100% 30.07 0.0
05 10:55 E 7 6.00 Fog/Mist OVC003 70.2 70.2 100% 30.06 0.0
05 10:35 E 7 4.00 Fog/Mist OVC002 69.8 69.8 100% 30.06 0.0
05 10:15 E 7 4.00 Fog/Mist OVC001 69.8 69.8 100% 30.06 0.0
05 09:55 NE 7 2.00 Fog/Mist OVC001 69.6 69.6 100% 30.05 0.0
05 09:35 E 9 2.00 Fog/Mist OVC001 69.6 69.6 100% 30.04 0.0
05 09:15 NE 8 1.00 Fog/Mist VV002 69.4 69.4 100% 30.04 0.0
05 08:55 NE 7 0.50 Fog VV002 69.8 69.8 100% 30.04 0.0
05 08:35 E 6 1.25 Fog/Mist OVC002 70.2 70.2 100% 30.03 0.0
05 08:15 E 7 1.50 Fog/Mist OVC002 70 70 100% 30.02 0.0
05 07:55 E 8 0.25 Fog VV001 69.8 69.8 100% 30 0.0
05 07:35 NE 7 0.15 Fog VV001 69.6 69.6 100% 30 0.0
05 07:15 E 8 0.25 Fog VV001 69.3 69.3 100% 29.99 0.0
05 06:55 E 5 0.25 Fog VV001 68.7 68.7 72.5 67.1 100% 29.99 0.0
05 06:35 NE 7 0.15 Fog VV001 68.4 68.4 100% 30 0.0
05 06:15 NE 7 0.25 Fog VV001 68.2 68.2 100% 29.99 0.0
05 05:55 NE 6 0.25 Fog VV001 68.4 68.4 100% 29.99 0.0
05 05:35 NE 6 0.25 Fog VV001 68.4 68.4 100% 29.99 0.0
05 05:15 E 6 0.25 Fog VV001 68.5 68.5 100% 29.98 0.0
05 04:55 NE 7 0.50 Fog VV001 68.4 68.4 100% 29.96 0.0
05 04:35 NE 7 4.00 Fog/Mist BKN002 68 68 100% 29.96 0.0
05 04:15 E 5 6.00 Fog/Mist SCT002 67.1 67.1 100% 29.96 0.0
05 03:55 NE 6 7.00 Fair CLR 68.2 68.2 100% 29.97 0.0
05 03:35 NE 7 8.00 Fair CLR 68.5 68.5 100% 29.98 0.0
05 03:15 NE 6 7.00 Fair CLR 68.5 68.5 100% 29.98 0.0
05 02:55 N 6 6.00 Fog/Mist CLR 69.1 69.1 100% 29.98 0.0
05 02:35 NE 6 9.00 Fair CLR 69.8 69.8 100% 29.97 0.0
05 02:15 NE 6 8.00 Fair CLR 70.3 70.3 100% 29.98 0.0
05 01:55 NE 5 8.00 Fair CLR 70.9 70.9 100% 29.98 0.0
05 01:35 NE 6 8.00 Fair CLR 71.2 71.2 100% 29.98 0.0
05 01:15 NE 7 7.00 Fair CLR 71.6 71.6 100% 29.97 0.0
05 00:55 NE 7 8.00 Fair CLR 73 73 84.2 72.9 100% 29.97 0.0
05 00:35 NE 6 7.00 Fair CLR 73.2 73.2 100% 29.96 0.0
05 00:15 NE 6 7.00 Fair CLR 73 73 100% 29.96 0.0
04 23:55 NE 6 8.00 Fair CLR 73.9 73.9 100% 29.96 0.0
04 23:35 NE 5 8.00 Fair CLR 73.8 73.8 100% 29.96 0.0
04 23:15 NE 5 8.00 Fair CLR 74.8 74.8 100% 29.96 0.0
04 22:55 NE 5 8.00 Fair CLR 75.4 75.4 100% 73 29.96 0.0
04 22:35 NE 5 9.00 Fair CLR 76.6 76.6 100% 77 29.96 0.0
04 22:15 NE 6 9.00 Mostly Cloudy BKN028 77.4 77.4 100% 79 29.97 0.0
04 21:55 NE 6 9.00 Overcast BKN026 OVC032 78.4 77.9 98% 82 29.96 0.0
04 21:35 NE 6 9.00 Overcast BKN026 OVC033 78.4 78.4 100% 82 29.96 0.0
04 21:15 NE 5 9.00 Overcast OVC027 79.7 79 98% 86 29.96 0.0
04 20:55 NE 6 9.00 A Few Clouds FEW028 79 78.8 99% 84 29.94 0.0
04 20:35 N 5 9.00 Fair CLR 78.8 78.8 100% 83 29.93 0.0
04 20:15 N 7 9.00 Partly Cloudy SCT035 81 79.2 94% 89 29.93 0.0
04 19:55 Vrbl 3 10.00 A Few Clouds FEW040 79.5 79.5 100% 86 29.92 0.0
04 19:35 S 5 9.00 Fair CLR 81 80.8 99% 90 29.92 0.0
04 19:15 S 5 9.00 Fair CLR 83.3 81 93% 97 29.92 0.0
04 18:55 S 6 9.00 Fair CLR 85.1 81.7 91.8 85.1 90% 102 29.91 0.0
04 18:35 S 6 9.00 Fair CLR 86.2 80.8 84% 103 29.91 0.0
04 18:15 S 7 10.00 Fair CLR 87.1 80.8 82% 104 29.91 0.0
04 17:55 S 8 10.00 Fair CLR 88 79.9 77% 104 29.91 0.0
04 17:35 S 7 10.00 Fair CLR 88.5 79.9 76% 105 29.9 0.0
04 17:15 S 8 10.00 Fair CLR 88.9 80.1 75% 106 29.9 0.0
04 16:55 S 6 10.00 Fair CLR 88.9 79.7 74% 105 29.9 0.0
04 16:35 S 8 10.00 Fair CLR 89.1 80.6 76% 107 29.9 0.0
04 16:15 S 5 10.00 Fair CLR 87.3 80.8 81% 104 29.9 0.0
04 15:55 S 3 10.00 A Few Clouds FEW036 90 79 70% 106 29.9 0.0
04 15:35 Calm 10.00 Fair CLR 90.5 76.6 64% 103 29.9 0.0
04 15:15 Calm 10.00 Fair CLR 88.3 76.1 67% 100 29.9 0.0
04 14:55 Vrbl 3 10.00 Fair CLR 90.7 78.6 68% 106 29.9 0.0
04 14:35 Calm 10.00 Fair CLR 90 78.3 69% 105 29.89 0.0
04 14:15 Vrbl 3 10.00 Fair CLR 89.8 79.3 71% 106 29.89 0.0
04 13:55 S 7 10.00 Fair CLR 88.3 79.2 74% 104 29.89 0.0
04 13:35 S 8 10.00 Fair CLR 88.3 79.9 76% 105 29.89 0.0
04 13:15 S 7 10.00 Fair CLR 87.8 79.2 76% 103 29.89 0.0
04 12:55 S 7 10.00 Fair CLR 87.4 79.3 87.4 71.8 77% 103 29.89 0.0
04 12:35 S 3 10.00 Fair CLR 86.9 79 77% 101 29.9 0.0
04 12:15 S 7 10.00 Fair CLR 86.4 78.4 77% 100 29.89 0.0
04 11:55 Calm 10.00 Fair CLR 85.6 77.7 77% 97 29.89 0.0
04 11:35 Calm 10.00 Fair CLR 84.7 76.8 77% 95 29.89 0.0
04 11:15 Calm 10.00 A Few Clouds FEW120 83.8 76.5 79% 93 29.89 0.0
04 10:55 Calm 10.00 Fair CLR 85.3 75.9 74% 95 29.89 0.0
04 10:35 Calm 10.00 Fair CLR 84.4 75.2 74% 93 29.89 0.0
04 10:15 SW 5 10.00 Fair CLR 82.8 75 78% 90 29.89 0.0
04 09:55 SW 5 10.00 Fair CLR 81.3 74.8 81% 87 29.89 0.0
04 09:35 SW 8 10.00 Fair CLR 80.8 74.3 81% 86 29.88 0.0
04 09:15 SW 8 10.00 Fair CLR 79.3 74.1 84% 83 29.88 0.0
04 08:55 SW 9 10.00 Fair CLR 78.1 73.6 86% 81 29.88 0.0
04 08:35 SW 8 10.00 Fair CLR 77.5 73.6 88% 79 29.88 0.0
04 08:15 SW 9 10.00 Fair CLR 75.9 73 91% 76 29.88 0.0
04 07:55 SW 10 10.00 Fair CLR 74.7 73 95% 29.87 0.0
04 07:35 SW 7 9.00 Fair CLR 73.9 72.7 96% 29.86 0.0
04 07:15 SW 7 9.00 Fair CLR 71.8 71.8 100% 29.86 0.0
04 06:55 SW 7 9.00 Fair CLR 72.9 72.5 77.4 72.7 99% 29.86 0.0
04 06:35 SW 8 10.00 Fair CLR 73.4 72.5 97% 29.86 0.0
04 06:15 SW 7 10.00 Fair CLR 72.9 72.7 99% 29.86 0.0
04 05:55 SW 8 10.00 Fair CLR 73.6 72.9 98% 29.85 0.0
04 05:35 SW 7 10.00 Fair CLR 73.4 73 99% 29.85 0.0
04 05:15 SW 9 10.00 A Few Clouds FEW065 74.1 73.2 97% 29.85 0.0
04 04:55 SW 8 10.00 Partly Cloudy SCT070 74.3 73.6 98% 29.85 0.0
04 04:35 SW 7 10.00 Mostly Cloudy BKN065 73.8 73.6 99% 29.85 0.0
04 04:15 SW 7 10.00 Mostly Cloudy BKN060 74.5 73.8 98% 29.84 0.0
04 03:55 SW 8 10.00 Mostly Cloudy BKN065 75 73.9 96% 73 29.84 0.0
04 03:35 SW 9 10.00 Mostly Cloudy BKN065 75.4 73.9 95% 74 29.83 0.0
04 03:15 SW 10 10.00 Mostly Cloudy BKN060 76.1 73.9 93% 76 29.83 0.0
04 02:55 SW 10 10.00 Fair CLR 77 73.6 89% 78 29.83 0.0
04 02:35 SW 13 10.00 A Few Clouds FEW150 77.2 73.9 90% 79 29.84 0.0
04 02:15 SW 10 10.00 Partly Cloudy SCT150 77 74.5 92% 78 29.84 0.0
04 01:55 SW 12 10.00 A Few Clouds FEW160 77.4 74.5 91% 79 29.84 0.0
04 01:35 S 12 10.00 Mostly Cloudy BKN160 76.8 75 94% 78 29.84 0.0
04 01:15 S 9 10.00 Mostly Cloudy BKN160 74.7 74.7 100% 29.84 0.0
04 00:55 S 10 10.00 Partly Cloudy SCT160 75 75 79.2 73 100% 72 29.84 0.0
04 00:35 S 12 10.00 A Few Clouds FEW150 75.2 75.2 100% 73 29.85 0.0
04 00:15 S 10 10.00 Fair CLR 74.7 74.7 100% 29.84 0.0
03 23:55 S 9 10.00 Fair CLR 73.6 73.6 100% 29.84 0.0
03 23:35 S 9 10.00 Fair CLR 73.9 73.9 100% 29.84 0.0
03 23:15 S 8 10.00 Fair CLR 73.2 73.2 100% 29.84 0.0
03 22:55 SE 6 10.00 Fair CLR 73 73 100% 29.85 0.0
03 22:35 S 7 10.00 Fair CLR 73.8 73.8 100% 29.85 0.0
03 22:15 S 10 10.00 Fair CLR 74.7 74.7 100% 29.85 0.0
03 21:55 S 9 10.00 Fair CLR 74.1 74.1 100% 29.84 0.0
03 21:35 S 6 10.00 A Few Clouds FEW180 74.7 74.7 100% 29.85 0.0
03 21:15 S 8 10.00 Mostly Cloudy BKN180 75.6 74.7 97% 74 29.84 0.0
03 20:55 S 10 10.00 Mostly Cloudy FEW120 SCT150 BKN170 76.8 74.7 93% 78 29.84 0.0
03 20:35 S 10 10.00 Light Rain FEW140 BKN170 BKN190 75.9 75.4 98% 75 29.83 0.0
03 20:15 S 8 10.00 Mostly Cloudy SCT120 BKN190 75.4 75.4 100% 73 29.83 0.0
03 19:55 S 7 9.00 Mostly Cloudy BKN130 76.3 75.4 97% 76 29.84 0.0
03 19:35 S 7 9.00 Partly Cloudy SCT130 77 75.2 94% 78 29.84 0.0
03 19:15 SE 8 9.00 Fair CLR 78.3 75 90% 81 29.83 0.0
03 18:55 SE 8 9.00 Fair CLR 79.7 74.8 83.5 79.7 85% 84 29.83 0.0
03 18:35 SE 8 10.00 Fair CLR 80.6 74.5 82% 86 29.82 0.0
03 18:15 S 9 10.00 Fair CLR 81.9 73.9 77% 88 29.83 0.0
03 17:55 S 10 10.00 Fair CLR 81.9 73.8 77% 88 29.83 0.0
03 17:35 S 10 10.00 Fair CLR 82.6 73.9 75% 89 29.82 0.0
03 17:15 S 13 10.00 A Few Clouds FEW120 82.9 73.4 73% 89 29.82 0.0
03 16:55 S 9 10.00 Partly Cloudy SCT160 82.2 73.6 75% 88 29.82 0.0
03 16:35 S 14 10.00 Fair CLR 82 72.7 73% 87 29.82 0.0
03 16:15 S 15 10.00 Fair CLR 81.9 72.7 74% 87 29.83 0.0
03 15:55 SE 12 10.00 A Few Clouds FEW180 82 72.5 73% 87 29.83 0.0
03 15:35 SE 15 10.00 Fair CLR 82.8 72.7 72% 88 29.83 0.0
03 15:15 S 15 10.00 Fair CLR 82.8 71.4 69% 88 29.83 0.0
03 14:55 SE 9 G 20 10.00 A Few Clouds FEW170 82.6 72.7 72% 88 29.85 0.0
03 14:35 SE 13 10.00 Mostly Cloudy BKN170 82.4 72.7 73% 88 29.85 0.0
03 14:15 SE 14 10.00 Overcast OVC170 81 70.9 72% 85 29.85 0.0
03 13:55 SE 12 10.00 Partly Cloudy SCT170 82.9 71.8 69% 88 29.86 0.0
03 13:35 SE 15 10.00 Fair CLR 81.5 69.6 67% 85 29.85 0.0
03 13:15 SE 13 G 23 10.00 Fair CLR 81 70 69% 84 29.85 0.0
03 12:55 S 15 G 23 10.00 Fair CLR 79.5 69.4 81.5 69.3 71% 82 29.85 0.0 0.05
03 12:35 S 15 10.00 A Few Clouds FEW380 78.1 69.6 75% 80 29.86 0.0
03 12:15 S 18 G 23 10.00 Partly Cloudy FEW110 SCT250 SCT380 77.4 69.1 76% 79 29.87 0.0
03 11:55 S 14 G 22 10.00 Partly Cloudy SCT110 80.8 70.2 70% 84 29.88 0.0
03 11:35 S 15 G 20 10.00 Fair CLR 81.5 71.1 71% 86 29.88 0.0
03 11:15 S 8 10.00 A Few Clouds FEW100 79.3 71.8 78% 83 29.86 0.0
03 10:55 SE 10 10.00 Partly Cloudy SCT110 75.6 70.5 84% 76 29.86 0.0
03 10:35 SE 12 10.00 Mostly Cloudy SCT100 BKN140 BKN170 75.2 70.5 85% 75 29.86 0.0
03 10:15 SE 8 10.00 Mostly Cloudy SCT110 BKN170 72.1 70.7 95% 29.87 0.0
03 09:55 S 10 10.00 Mostly Cloudy SCT100 BKN120 BKN150 70.7 70.2 98% 29.87 0.0 0.05
03 09:35 SE 8 10.00 Mostly Cloudy FEW110 BKN150 69.4 69.4 100% 29.86 0.0
03 09:15 S 12 10.00 Overcast SCT090 BKN100 BKN120 OVC160 69.6 69.6 100% 29.86 0.0
03 08:55 S 7 10.00 Overcast OVC090 69.6 69.6 100% 29.89 0.0 0.02
03 08:35 E 7 10.00 Overcast OVC090 70 70 100% 29.88 0.0 0.02
03 07:35 S 12 4.00 Rain Fog/Mist FEW080 BKN120 OVC140 69.4 69.4 100% 29.89 0.0 0.02
03 07:15 SW 3 9.00 Light Rain FEW065 BKN140 70 69.6 99% 29.92 0.0
03 06:55 NW 12 8.00 Light Rain SCT095 BKN130 70.7 69.4 73.9 68.7 96% 29.94 0.0 0.04 0.15
03 06:35 S 12 7.00 Light Rain OVC095 70.7 69.1 95% 29.9 0.0 0.03
03 06:15 S 14 7.00 Light Rain FEW080 OVC100 70 69.6 99% 29.88 0.0 0.02
03 05:55 S 12 7.00 Light Rain BKN095 OVC120 71.1 69.1 94% 29.89 0.0 0.08
03 05:35 S 13 G 24 7.00 Light Rain OVC095 71.1 69.4 95% 29.89 0.0 0.07
03 05:15 SW 17 7.00 Light Rain Thunderstorm in Vicinity OVC090 71.6 70 95% 29.9 0.0 0.04
03 04:55 SW 17 G 36 7.00 Thunderstorm Light Rain FEW080 BKN095 OVC130 71.2 70 96% 29.91 0.0 0.03
03 04:35 SW 24 G 30 10.00 Thunderstorm in Vicinity and Breezy BKN085 BKN110 OVC130 73.9 71.2 91% 29.89 0.0
03 04:15 SW 14 10.00 Overcast SCT080 SCT110 OVC180 73.9 72.9 96% 29.88 0.0
03 03:55 S 3 10.00 Mostly Cloudy BKN180 70.7 70.7 100% 29.85 0.0
03 03:35 S 8 10.00 Fair CLR 70 70 100% 29.86 0.0
03 03:15 SE 3 10.00 Fair CLR 69.1 69.1 100% 29.86 0.0
03 02:55 SE 3 10.00 Fair CLR 68.7 68.7 100% 29.85 0.0
03 02:35 SE 6 10.00 Fair CLR 68.9 68.9 100% 29.85 0.0
03 02:15 SE 3 10.00 Fair CLR 69.6 69.6 100% 29.86 0.0
03 01:55 SE 5 10.00 Fair CLR 69.6 69.6 100% 29.86 0.0
03 01:35 SE 6 10.00 Fair CLR 69.8 69.8 100% 29.87 0.0
03 01:15 SE 6 10.00 Fair CLR 70.3 70.3 100% 29.87 0.0
03 00:55 SE 5 10.00 Fair CLR 70.7 70.7 80.4 69.4 100% 29.87 0.0
03 00:35 SE 6 10.00 Fair CLR 70.9 70.9 100% 29.87 0.0
03 00:15 SE 6 10.00 Fair CLR 70.7 70.7 100% 29.87 0.0
02 23:55 SE 7 10.00 Fair CLR 72.1 72.1 100% 29.88 0.0
02 23:35 SE 7 10.00 Fair CLR 70.9 70.9 100% 29.88 0.0
02 23:15 SE 7 10.00 Fair CLR 70.5 70.5 100% 29.88 0.0
02 22:55 SE 6 10.00 Fair CLR 69.6 69.6 100% 29.88 0.0
Date Time (cdt) Wind (mph) Vis. (mi.) Weather Sky Cond. Air Dwpt Max. Min. Relative Humidity Wind Chill (°F) Heat Index (°F) altimeter (in) sea level (mb) 1 hr 3 hr 6 hr
6 hour
Temperature (ºF) Pressure Precipitation (in)